メインページ
METAR-TAF:

METAR-TAF

空港 :

クウェート国際空港

クウェート, クウェート

緯度: 29-13N, 経度: 047-59E, 海抜: 55m

現時点の気象観測

当レポートは56分前の22:00(UTC)に作成
の風 15kt
気温 37°C
湿度 21%
気圧 1000 hPa
視程10km以上
1,500メートル以下は雲なし、積乱雲なし

METAR: OKBK 182200Z 35015KT CAVOK 37/11 Q1000 NOSIG

時間: 01:56 (22:56 UTC)

予報

当レポートは6時間11分前の16:45(UTC)に作成
予報は18日の 18時(UTC)から 19日の 24時(UTC)まで有効
の風 15kt、最大25ktの突風を伴う
視程: 7000m
晴天
18日の 18時(UTC)から 19日の 02時(UTC)まで一時的に
視程: 4000m
(弱い) , 広範な塵

TAF: OKBK 181645Z 1818/1924 35015G25KT 7000 SKC TEMPO 1818/1902 4000 -BLDU

4,000以上の空港の気象観測と天気予報(METAR報とTAF報)

利用可能な観測所は地図上に黄色い丸と赤い丸で示す。

丸の上にカーソルを重ねると観測所名を参照できる。

次にクリックすると気象観測と天気予報を参照できる。

マップの切り替え:黒色「×」印の緑ボタンをクリックして拡大、「-」印の緑ボタンをクリックして縮小、緑色の三角印をクリックして隣りの地図に切り替え


METAR-TAF: